Time;durP1;ratioP1;P1;durP2;ratioP2;P2;SDS_P1;SDS_P2;PMS_P1;PMS_P2;Temp;Humidity;BMP_temperature;BMP_pressure;BME280_temperature;BME280_humidity;BME280_pressure;Samples;Min_cycle;Max_cycle;Signal;HPM_P1;HPM_P2
2021/12/27 00:01:25;;;;;;;;;;;21.90;44.90;;;;;;5097879;28;19923;-50
2021/12/27 00:03:54;;;;;;;;;;;22.00;45.00;;;;;;5114582;28;19949;-58
2021/12/27 00:06:22;;;;;;;;;;;21.90;44.80;;;;;;5115810;28;19923;-54
2021/12/27 00:08:50;;;;;;;;;;;21.90;44.80;;;;;;5116078;28;19956;-50
2021/12/27 00:11:17;;;;;;;;;;;21.90;44.80;;;;;;5116048;28;19985;-49
2021/12/27 00:13:44;;;;;;;;;;;21.90;44.80;;;;;;5115972;28;20019;-56
2021/12/27 00:16:11;;;;;;;;;;;21.90;44.90;;;;;;5115608;28;19931;-52
2021/12/27 00:18:38;;;;;;;;;;;21.90;44.90;;;;;;5114588;28;20355;-54
2021/12/27 00:21:05;;;;;;;;;;;21.90;44.90;;;;;;5115831;28;19927;-51
2021/12/27 00:23:32;;;;;;;;;;;21.90;44.80;;;;;;5115062;28;20350;-52
2021/12/27 00:26:00;;;;;;;;;;;21.90;44.80;;;;;;5115622;28;19941;-48
2021/12/27 00:28:27;;;;;;;;;;;21.90;44.90;;;;;;5115701;28;19967;-49
2021/12/27 00:30:54;;;;;;;;;;;21.90;44.90;;;;;;5115623;28;19924;-49
2021/12/27 00:33:21;;;;;;;;;;;21.90;44.90;;;;;;5113962;28;20446;-54
2021/12/27 00:35:48;;;;;;;;;;;21.90;44.90;;;;;;5115214;28;19977;-49
2021/12/27 00:38:16;;;;;;;;;;;21.80;44.80;;;;;;5115399;28;19977;-50
2021/12/27 00:40:43;;;;;;;;;;;21.90;44.90;;;;;;5115457;28;19973;-52
2021/12/27 00:43:10;;;;;;;;;;;21.80;44.80;;;;;;5115381;28;19985;-57
2021/12/27 00:45:37;;;;;;;;;;;21.80;44.80;;;;;;5115051;28;19924;-57
2021/12/27 00:48:04;;;;;;;;;;;21.80;44.80;;;;;;5113699;28;19974;-52
2021/12/27 00:50:32;;;;;;;;;;;21.80;44.80;;;;;;5115245;28;19924;-56
2021/12/27 00:52:59;;;;;;;;;;;21.80;44.80;;;;;;5114738;28;19928;-49
2021/12/27 00:55:26;;;;;;;;;;;21.80;44.80;;;;;;5114843;28;19938;-52
2021/12/27 00:57:53;;;;;;;;;;;21.80;44.80;;;;;;5114653;28;20375;-58
2021/12/27 01:00:23;;;;;;;;;;;21.80;44.80;;;;;;5114784;28;19924;-53
2021/12/27 01:02:51;;;;;;;;;;;21.80;44.80;;;;;;5113473;28;20857;-51
2021/12/27 01:05:18;;;;;;;;;;;21.80;44.90;;;;;;5114950;28;19930;-55
2021/12/27 01:07:45;;;;;;;;;;;21.80;44.90;;;;;;5114648;28;20030;-57
2021/12/27 01:13:03;;;;;;;;;;;21.80;44.80;;;;;;5114365;28;19931;-49
2021/12/27 01:15:47;;;;;;;;;;;21.80;44.90;;;;;;5114559;28;19975;-55
2021/12/27 01:18:16;;;;;;;;;;;21.80;44.90;;;;;;5113279;27;19924;-53
2021/12/27 01:20:43;;;;;;;;;;;21.80;44.90;;;;;;5114770;28;19932;-52
2021/12/27 01:23:10;;;;;;;;;;;21.80;44.90;;;;;;5113892;28;20383;-50
2021/12/27 01:25:37;;;;;;;;;;;21.80;44.90;;;;;;5114251;28;19923;-54
2021/12/27 01:28:05;;;;;;;;;;;21.80;44.90;;;;;;5114677;28;19924;-53
2021/12/27 01:30:37;;;;;;;;;;;21.80;44.90;;;;;;5114608;28;20342;-51
2021/12/27 01:33:05;;;;;;;;;;;21.80;44.90;;;;;;5113392;28;19932;-51
2021/12/27 01:35:34;;;;;;;;;;;21.80;45.00;;;;;;5115135;28;19973;-47
2021/12/27 01:38:02;;;;;;;;;;;21.80;44.90;;;;;;5114131;28;19931;-46
2021/12/27 01:40:29;;;;;;;;;;;21.80;44.90;;;;;;5114472;28;19927;-57
2021/12/27 01:43:06;;;;;;;;;;;21.80;45.00;;;;;;5114457;28;20007;-48
2021/12/27 01:45:53;;;;;;;;;;;21.80;45.00;;;;;;5114145;28;19974;-49
2021/12/27 01:48:23;;;;;;;;;;;21.80;44.90;;;;;;5095034;28;19978;-49
2021/12/27 01:50:52;;;;;;;;;;;21.80;44.90;;;;;;5114429;28;19924;-54
2021/12/27 01:53:20;;;;;;;;;;;21.70;44.80;;;;;;5114216;28;20031;-54
2021/12/27 01:55:47;;;;;;;;;;;21.70;44.80;;;;;;5095911;28;19924;-54
2021/12/27 01:58:14;;;;;;;;;;;21.70;44.80;;;;;;5114281;28;20355;-55
2021/12/27 02:00:44;;;;;;;;;;;21.70;44.80;;;;;;5114357;28;20015;-52
2021/12/27 02:03:13;;;;;;;;;;;21.70;44.90;;;;;;5112826;28;19931;-57
2021/12/27 02:05:40;;;;;;;;;;;21.70;44.80;;;;;;5114324;28;19971;-54
2021/12/27 02:08:07;;;;;;;;;;;21.70;44.80;;;;;;5096281;28;20023;-51
2021/12/27 02:10:34;;;;;;;;;;;21.70;44.90;;;;;;5114226;28;19992;-54
2021/12/27 02:13:01;;;;;;;;;;;21.70;44.80;;;;;;5113874;28;20363;-54
2021/12/27 02:15:28;;;;;;;;;;;21.70;44.80;;;;;;5114181;28;19930;-52
2021/12/27 02:17:56;;;;;;;;;;;21.70;44.90;;;;;;5095770;28;19993;-53
2021/12/27 02:20:24;;;;;;;;;;;21.70;44.90;;;;;;5112969;28;19924;-53
2021/12/27 02:22:54;;;;;;;;;;;21.70;44.80;;;;;;5115288;28;19985;-53
2021/12/27 02:25:22;;;;;;;;;;;21.70;44.90;;;;;;5117817;28;19923;-55
2021/12/27 02:27:50;;;;;;;;;;;21.70;44.80;;;;;;5117921;28;19932;-54
2021/12/27 02:30:17;;;;;;;;;;;21.70;44.90;;;;;;5118043;28;20018;-50
2021/12/27 02:32:49;;;;;;;;;;;21.70;44.90;;;;;;5117643;28;20474;-53
2021/12/27 02:35:20;;;;;;;;;;;21.70;44.90;;;;;;5116704;28;19924;-52
2021/12/27 02:37:48;;;;;;;;;;;21.70;44.90;;;;;;5117462;28;19967;-57
2021/12/27 02:40:15;;;;;;;;;;;21.70;44.90;;;;;;5117522;28;19977;-54
2021/12/27 02:43:03;;;;;;;;;;;21.70;44.90;;;;;;5117430;28;19924;-56
2021/12/27 02:45:33;;;;;;;;;;;21.70;44.80;;;;;;5099440;28;19967;-56
2021/12/27 02:48:00;;;;;;;;;;;21.70;44.80;;;;;;5117663;28;19931;-48
2021/12/27 02:50:28;;;;;;;;;;;21.70;44.90;;;;;;5098345;28;20264;-53
2021/12/27 02:52:55;;;;;;;;;;;21.70;44.90;;;;;;5099052;28;19923;-53
2021/12/27 02:55:23;;;;;;;;;;;21.70;44.80;;;;;;5117509;28;19973;-53
2021/12/27 02:57:51;;;;;;;;;;;21.70;44.80;;;;;;5116967;28;20379;-54
2021/12/27 03:00:41;;;;;;;;;;;21.70;44.90;;;;;;5117340;28;20367;-52
2021/12/27 03:03:08;;;;;;;;;;;21.70;44.90;;;;;;5099329;28;19928;-46
2021/12/27 03:05:35;;;;;;;;;;;21.70;44.90;;;;;;5115877;28;19923;-49
2021/12/27 03:08:02;;;;;;;;;;;21.70;44.90;;;;;;5117301;28;19992;-47
2021/12/27 03:10:33;;;;;;;;;;;21.70;44.90;;;;;;5116914;28;19972;-57
2021/12/27 03:13:01;;;;;;;;;;;21.70;44.90;;;;;;5116855;28;19974;-58
2021/12/27 03:15:28;;;;;;;;;;;21.70;44.90;;;;;;5116841;28;20014;-49
2021/12/27 03:17:55;;;;;;;;;;;21.70;44.90;;;;;;5116732;28;19924;-56
2021/12/27 03:20:25;;;;;;;;;;;21.70;44.90;;;;;;5097804;28;20049;-55
2021/12/27 03:22:52;;;;;;;;;;;21.70;45.00;;;;;;5098305;28;20358;-53
2021/12/27 03:25:20;;;;;;;;;;;21.70;44.90;;;;;;5116610;28;19978;-57
2021/12/27 03:27:48;;;;;;;;;;;21.60;44.80;;;;;;5116786;28;20026;-57
2021/12/27 03:30:16;;;;;;;;;;;21.60;44.90;;;;;;5116850;28;19923;-51
2021/12/27 03:32:43;;;;;;;;;;;21.60;44.80;;;;;;5116820;28;19955;-59
2021/12/27 03:35:14;;;;;;;;;;;21.60;44.90;;;;;;5114203;27;19967;-56
2021/12/27 03:37:43;;;;;;;;;;;21.60;44.90;;;;;;5116732;28;19928;-56
2021/12/27 03:40:11;;;;;;;;;;;21.60;44.90;;;;;;5116247;28;20454;-55
2021/12/27 03:42:38;;;;;;;;;;;21.60;44.90;;;;;;5116282;28;19967;-57
2021/12/27 03:45:06;;;;;;;;;;;21.60;44.90;;;;;;5116566;28;19973;-49
2021/12/27 03:47:33;;;;;;;;;;;21.60;44.90;;;;;;5116568;28;20007;-53
2021/12/27 03:50:01;;;;;;;;;;;21.60;44.90;;;;;;5115292;28;19928;-57
2021/12/27 03:52:28;;;;;;;;;;;21.60;44.90;;;;;;5115960;28;20011;-57
2021/12/27 03:54:55;;;;;;;;;;;21.60;44.80;;;;;;5116390;28;19923;-55
2021/12/27 03:57:22;;;;;;;;;;;21.70;45.00;;;;;;5116225;28;19977;-53
2021/12/27 04:00:04;;;;;;;;;;;21.60;44.90;;;;;;5116211;28;19928;-55
2021/12/27 04:02:34;;;;;;;;;;;21.60;44.90;;;;;;5115975;28;19924;-57
2021/12/27 04:05:01;;;;;;;;;;;21.60;44.90;;;;;;5114657;28;19928;-55
2021/12/27 04:07:33;;;;;;;;;;;21.60;44.90;;;;;;5115829;28;19970;-55
2021/12/27 04:10:00;;;;;;;;;;;21.60;44.90;;;;;;5115784;28;19928;-55
2021/12/27 04:12:28;;;;;;;;;;;21.60;44.90;;;;;;5116026;28;19924;-57
2021/12/27 04:14:55;;;;;;;;;;;21.60;44.90;;;;;;5115655;28;19944;-55
2021/12/27 04:17:22;;;;;;;;;;;21.60;44.90;;;;;;5115927;28;19924;-54
2021/12/27 04:19:49;;;;;;;;;;;21.60;44.90;;;;;;5114528;27;20059;-55
2021/12/27 04:22:18;;;;;;;;;;;21.60;45.00;;;;;;5115315;28;19927;-56
2021/12/27 04:24:45;;;;;;;;;;;21.60;45.00;;;;;;5115528;28;19967;-56
2021/12/27 04:27:12;;;;;;;;;;;21.60;44.90;;;;;;5115622;28;19977;-56
2021/12/27 04:29:39;;;;;;;;;;;21.60;45.00;;;;;;5097278;28;19923;-54
2021/12/27 04:32:07;;;;;;;;;;;21.60;44.90;;;;;;5115650;28;20330;-58
2021/12/27 04:34:34;;;;;;;;;;;21.60;44.90;;;;;;5115362;28;20352;-53
2021/12/27 04:37:01;;;;;;;;;;;21.60;44.90;;;;;;5113935;27;19924;-56
2021/12/27 04:39:28;;;;;;;;;;;21.60;44.90;;;;;;5097433;28;19975;-57
2021/12/27 04:41:56;;;;;;;;;;;21.60;44.90;;;;;;5115148;28;19924;-53
2021/12/27 04:44:23;;;;;;;;;;;21.60;45.00;;;;;;5115085;28;19924;-57
2021/12/27 04:46:50;;;;;;;;;;;21.60;44.90;;;;;;5097230;28;19976;-54
2021/12/27 04:49:21;;;;;;;;;;;21.60;44.90;;;;;;5097939;28;19927;-48
2021/12/27 04:51:48;;;;;;;;;;;21.60;45.00;;;;;;5114055;27;19974;-53
2021/12/27 04:54:15;;;;;;;;;;;21.60;45.00;;;;;;5114745;28;19973;-58
2021/12/27 04:56:43;;;;;;;;;;;21.60;44.90;;;;;;5114748;28;19931;-58
2021/12/27 04:59:10;;;;;;;;;;;21.60;45.00;;;;;;5115063;28;19928;-58
2021/12/27 05:01:38;;;;;;;;;;;21.60;45.00;;;;;;5115093;28;19924;-50
2021/12/27 05:04:05;;;;;;;;;;;21.60;45.00;;;;;;5114736;28;19923;-55
2021/12/27 05:06:32;;;;;;;;;;;21.60;45.00;;;;;;5113494;28;19923;-57
2021/12/27 05:08:59;;;;;;;;;;;21.60;45.00;;;;;;5114642;28;20391;-55
2021/12/27 05:11:26;;;;;;;;;;;21.50;44.90;;;;;;5114620;28;19975;-56
2021/12/27 05:13:53;;;;;;;;;;;21.50;44.90;;;;;;5114853;28;19937;-55
2021/12/27 05:16:21;;;;;;;;;;;21.50;44.90;;;;;;5114532;28;19946;-57
2021/12/27 05:18:48;;;;;;;;;;;21.50;44.90;;;;;;5114429;28;19982;-56
2021/12/27 05:21:15;;;;;;;;;;;21.50;44.90;;;;;;5113146;27;20010;-58
2021/12/27 05:23:42;;;;;;;;;;;21.50;44.90;;;;;;5114087;28;19977;-57
2021/12/27 05:26:09;;;;;;;;;;;21.50;44.90;;;;;;5114579;28;19963;-59
2021/12/27 05:28:36;;;;;;;;;;;21.60;45.00;;;;;;5114658;28;19981;-52
2021/12/27 05:31:03;;;;;;;;;;;21.50;44.90;;;;;;5096345;28;19924;-58
2021/12/27 05:33:30;;;;;;;;;;;21.50;44.90;;;;;;5114314;28;19950;-49
2021/12/27 05:35:57;;;;;;;;;;;21.50;44.90;;;;;;5095779;28;19924;-56
2021/12/27 05:38:24;;;;;;;;;;;21.50;44.90;;;;;;5096490;28;19976;-55
2021/12/27 05:40:52;;;;;;;;;;;21.50;44.90;;;;;;5097109;28;19928;-53
2021/12/27 05:43:23;;;;;;;;;;;21.50;44.90;;;;;;5114189;28;19930;-49
2021/12/27 05:45:51;;;;;;;;;;;21.50;45.50;;;;;;5114462;28;19996;-52
2021/12/27 05:48:18;;;;;;;;;;;21.50;44.90;;;;;;5114166;28;19924;-57
2021/12/27 05:50:45;;;;;;;;;;;21.50;44.90;;;;;;5095214;28;20001;-51
2021/12/27 05:53:13;;;;;;;;;;;21.50;44.90;;;;;;5114226;28;20290;-53
2021/12/27 05:55:40;;;;;;;;;;;21.50;44.90;;;;;;5114290;28;19984;-58
2021/12/27 05:58:07;;;;;;;;;;;21.50;44.90;;;;;;5116738;28;19977;-58
2021/12/27 06:00:34;;;;;;;;;;;21.50;44.90;;;;;;5118514;28;19924;-57
2021/12/27 06:03:02;;;;;;;;;;;21.50;44.90;;;;;;5118214;28;19931;-50
2021/12/27 06:05:29;;;;;;;;;;;21.50;44.90;;;;;;5118162;28;19923;-54
2021/12/27 06:07:57;;;;;;;;;;;21.50;44.90;;;;;;5116903;28;20267;-53
2021/12/27 06:10:24;;;;;;;;;;;21.50;44.90;;;;;;5118426;28;19973;-56
2021/12/27 06:12:50;;;;;;;;;;;21.50;45.00;;;;;;5118311;28;19971;-52
2021/12/27 06:15:17;;;;;;;;;;;21.50;44.90;;;;;;5118318;28;19924;-54
2021/12/27 06:17:44;;;;;;;;;;;21.50;44.90;;;;;;5117953;28;20421;-50
2021/12/27 06:20:14;;;;;;;;;;;21.50;44.90;;;;;;5118136;28;20287;-53
2021/12/27 06:22:43;;;;;;;;;;;21.50;44.90;;;;;;5116160;27;20395;-59
2021/12/27 06:25:10;;;;;;;;;;;21.50;44.90;;;;;;5117816;28;19927;-50
2021/12/27 06:27:37;;;;;;;;;;;21.50;44.90;;;;;;5117954;28;19989;-51
2021/12/27 06:30:07;;;;;;;;;;;21.50;44.90;;;;;;5117695;28;19978;-59
2021/12/27 06:32:35;;;;;;;;;;;21.50;44.90;;;;;;5117985;28;19959;-58
2021/12/27 06:35:03;;;;;;;;;;;21.50;44.90;;;;;;5117578;28;19924;-53
2021/12/27 06:37:30;;;;;;;;;;;21.50;44.90;;;;;;5116757;28;19924;-51
2021/12/27 06:39:57;;;;;;;;;;;21.50;44.90;;;;;;5099773;28;19969;-51
2021/12/27 06:42:24;;;;;;;;;;;21.50;44.90;;;;;;5117511;28;19932;-58
2021/12/27 06:44:51;;;;;;;;;;;21.50;44.90;;;;;;5117737;28;19923;-56
2021/12/27 06:47:18;;;;;;;;;;;21.50;44.90;;;;;;5117715;28;19959;-54
2021/12/27 06:49:47;;;;;;;;;;;21.50;44.90;;;;;;5117647;28;20416;-56
2021/12/27 06:52:14;;;;;;;;;;;21.50;44.90;;;;;;5116201;28;20290;-59
2021/12/27 06:54:41;;;;;;;;;;;21.50;44.90;;;;;;5117534;28;19923;-55
2021/12/27 06:57:10;;;;;;;;;;;21.50;45.00;;;;;;5117047;28;20013;-52
2021/12/27 06:59:37;;;;;;;;;;;21.50;44.90;;;;;;5117090;28;19923;-50
2021/12/27 07:02:04;;;;;;;;;;;21.50;44.90;;;;;;5099457;28;19924;-50
2021/12/27 07:04:32;;;;;;;;;;;21.50;44.90;;;;;;5117345;28;19931;-56
2021/12/27 07:06:59;;;;;;;;;;;21.50;44.90;;;;;;5116450;27;19974;-49
2021/12/27 07:09:26;;;;;;;;;;;21.50;44.90;;;;;;5097834;28;19990;-56
2021/12/27 07:11:53;;;;;;;;;;;21.50;44.90;;;;;;5116976;28;20399;-47
2021/12/27 07:14:20;;;;;;;;;;;21.50;44.90;;;;;;5117163;28;19969;-48
2021/12/27 07:16:47;;;;;;;;;;;21.50;44.90;;;;;;5117124;28;19967;-50
2021/12/27 07:19:14;;;;;;;;;;;21.50;44.90;;;;;;5117016;28;19924;-56
2021/12/27 07:21:41;;;;;;;;;;;21.50;44.90;;;;;;5115755;28;19924;-46
2021/12/27 07:24:08;;;;;;;;;;;21.50;44.90;;;;;;5116338;28;19923;-47
2021/12/27 07:26:35;;;;;;;;;;;21.50;44.90;;;;;;5116839;28;19988;-47
2021/12/27 07:29:03;;;;;;;;;;;21.50;44.80;;;;;;5116893;28;19931;-55
2021/12/27 07:31:30;;;;;;;;;;;21.50;44.80;;;;;;5116580;28;20379;-56
2021/12/27 07:33:57;;;;;;;;;;;21.50;44.80;;;;;;5116520;28;19970;-59
2021/12/27 07:36:24;;;;;;;;;;;21.50;44.80;;;;;;5116761;28;19993;-53
2021/12/27 07:38:51;;;;;;;;;;;21.50;44.80;;;;;;5115273;27;20280;-53
2021/12/27 07:41:18;;;;;;;;;;;21.50;44.80;;;;;;5116600;28;19975;-51
2021/12/27 07:43:44;;;;;;;;;;;21.50;44.70;;;;;;5116310;28;19924;-56
2021/12/27 07:46:15;;;;;;;;;;;21.50;44.70;;;;;;5116569;28;19985;-54
2021/12/27 07:48:43;;;;;;;;;;;21.50;44.70;;;;;;5116243;28;19973;-52
2021/12/27 07:51:10;;;;;;;;;;;21.50;44.70;;;;;;5116160;28;19923;-53
2021/12/27 07:53:37;;;;;;;;;;;21.50;44.70;;;;;;5114856;27;20375;-54
2021/12/27 07:56:06;;;;;;;;;;;21.50;44.70;;;;;;5116268;28;19961;-58
2021/12/27 07:58:32;;;;;;;;;;;21.50;44.70;;;;;;5116129;28;19993;-54
2021/12/27 08:00:59;;;;;;;;;;;21.50;44.70;;;;;;5116203;28;19964;-54
2021/12/27 08:03:27;;;;;;;;;;;21.50;44.70;;;;;;5115912;28;19959;-53
2021/12/27 08:05:54;;;;;;;;;;;21.50;44.60;;;;;;5116182;28;19969;-54
2021/12/27 08:08:21;;;;;;;;;;;21.50;44.60;;;;;;5114905;28;19967;-55
2021/12/27 08:10:49;;;;;;;;;;;21.50;44.60;;;;;;5116107;28;19993;-51
2021/12/27 08:13:16;;;;;;;;;;;21.60;45.30;;;;;;5116031;28;19924;-49
2021/12/27 08:15:43;;;;;;;;;;;21.60;44.70;;;;;;5115988;28;19973;-58
2021/12/27 08:18:10;;;;;;;;;;;21.60;44.70;;;;;;5115976;28;19928;-56
2021/12/27 08:20:37;;;;;;;;;;;21.60;44.60;;;;;;5115385;28;19977;-57
2021/12/27 08:23:04;;;;;;;;;;;21.60;44.60;;;;;;5095915;28;20047;-55
2021/12/27 08:25:31;;;;;;;;;;;21.60;44.60;;;;;;5115654;28;20006;-52
2021/12/27 08:27:58;;;;;;;;;;;21.60;44.60;;;;;;5115703;28;19924;-57
2021/12/27 08:30:25;;;;;;;;;;;21.60;44.50;;;;;;5115379;28;19969;-51
2021/12/27 08:32:54;;;;;;;;;;;21.60;44.50;;;;;;5115274;28;19969;-57
2021/12/27 08:35:21;;;;;;;;;;;21.60;44.40;;;;;;5115564;28;19973;-59
2021/12/27 08:37:48;;;;;;;;;;;21.60;44.40;;;;;;5114498;28;20030;-55
2021/12/27 08:40:15;;;;;;;;;;;21.60;44.30;;;;;;5115441;28;19950;-54
2021/12/27 08:42:42;;;;;;;;;;;21.70;44.40;;;;;;5115460;28;19927;-52
2021/12/27 08:45:10;;;;;;;;;;;21.70;44.30;;;;;;5115127;28;19976;-54
2021/12/27 08:47:38;;;;;;;;;;;21.70;44.30;;;;;;5115009;28;20376;-57
2021/12/27 08:50:05;;;;;;;;;;;21.70;44.30;;;;;;5115291;28;19924;-48
2021/12/27 08:52:34;;;;;;;;;;;21.70;44.20;;;;;;5095961;28;19923;-58
2021/12/27 08:55:02;;;;;;;;;;;21.70;44.20;;;;;;5114923;28;19983;-55
2021/12/27 08:57:30;;;;;;;;;;;21.70;44.20;;;;;;5114878;28;20383;-55
2021/12/27 08:59:57;;;;;;;;;;;21.80;44.20;;;;;;5114724;28;19975;-54
2021/12/27 09:02:24;;;;;;;;;;;21.70;44.10;;;;;;5114813;28;19978;-55
2021/12/27 09:04:51;;;;;;;;;;;21.70;44.10;;;;;;5114764;28;19930;-51
2021/12/27 09:07:18;;;;;;;;;;;21.70;44.10;;;;;;5096726;28;19963;-49
2021/12/27 09:09:46;;;;;;;;;;;21.80;44.20;;;;;;5096047;28;20014;-53
2021/12/27 09:12:13;;;;;;;;;;;21.80;44.20;;;;;;5114496;28;20011;-57
2021/12/27 09:14:41;;;;;;;;;;;21.80;44.10;;;;;;5114546;28;19971;-57
2021/12/27 09:17:08;;;;;;;;;;;21.80;44.20;;;;;;5114595;28;20422;-57
2021/12/27 09:19:35;;;;;;;;;;;21.80;44.10;;;;;;5114391;28;20280;-59
2021/12/27 09:22:03;;;;;;;;;;;21.80;44.10;;;;;;5114309;28;20353;-55
2021/12/27 09:24:31;;;;;;;;;;;21.80;44.10;;;;;;5113748;28;19985;-59
2021/12/27 09:26:58;;;;;;;;;;;21.80;44.10;;;;;;5114295;28;19924;-53
2021/12/27 09:29:26;;;;;;;;;;;21.80;44.10;;;;;;5114629;28;19967;-52
2021/12/27 09:31:53;;;;;;;;;;;21.80;44.00;;;;;;5113543;28;19928;-49
2021/12/27 09:34:20;;;;;;;;;;;21.80;44.00;;;;;;5114628;28;19928;-57
2021/12/27 09:36:48;;;;;;;;;;;21.80;44.00;;;;;;5114614;28;20014;-48
2021/12/27 09:39:15;;;;;;;;;;;21.90;44.00;;;;;;5113477;28;20346;-48
2021/12/27 09:41:42;;;;;;;;;;;21.90;43.90;;;;;;5114457;28;19971;-51
2021/12/27 09:44:09;;;;;;;;;;;21.90;43.90;;;;;;5114499;28;19967;-53
2021/12/27 09:46:36;;;;;;;;;;;21.90;43.90;;;;;;5096299;28;19924;-54
2021/12/27 09:49:10;;;;;;;;;;;21.90;43.90;;;;;;5114434;28;19971;-49
2021/12/27 09:51:38;;;;;;;;;;;22.00;43.90;;;;;;5115045;28;19984;-52
2021/12/27 09:54:05;;;;;;;;;;;22.00;43.90;;;;;;5112824;28;19924;-50
2021/12/27 09:56:32;;;;;;;;;;;22.00;43.90;;;;;;5113954;28;19959;-54
2021/12/27 09:59:00;;;;;;;;;;;22.00;43.80;;;;;;5114697;28;19923;-50
2021/12/27 10:01:27;;;;;;;;;;;22.00;43.80;;;;;;5113913;28;19924;-48
2021/12/27 10:03:56;;;;;;;;;;;22.00;43.70;;;;;;5096449;28;20014;-49
2021/12/27 10:06:25;;;;;;;;;;;22.00;43.70;;;;;;5113926;28;19923;-50
2021/12/27 10:08:53;;;;;;;;;;;22.00;43.70;;;;;;5113206;28;19924;-55
2021/12/27 10:11:22;;;;;;;;;;;22.00;43.70;;;;;;5113937;28;20434;-52
2021/12/27 10:13:58;;;;;;;;;;;22.00;43.70;;;;;;5113906;28;19924;-52
2021/12/27 10:16:25;;;;;;;;;;;22.00;43.70;;;;;;5114205;28;19924;-58
2021/12/27 10:19:00;;;;;;;;;;;22.10;43.70;;;;;;5113831;28;19924;-57
2021/12/27 10:21:27;;;;;;;;;;;22.10;43.70;;;;;;5113654;28;19977;-53
2021/12/27 10:24:14;;;;;;;;;;;22.10;43.70;;;;;;5112509;28;19928;-50
2021/12/27 10:26:44;;;;;;;;;;;22.10;43.60;;;;;;5113685;28;20421;-50
2021/12/27 10:29:19;;;;;;;;;;;22.10;44.20;;;;;;5113838;28;19969;-53
2021/12/27 10:31:50;;;;;;;;;;;22.10;43.60;;;;;;5096158;28;19950;-55
2021/12/27 10:34:18;;;;;;;;;;;22.10;43.60;;;;;;5113698;28;20019;-49
2021/12/27 10:37:06;;;;;;;;;;;22.10;43.50;;;;;;5113659;28;19973;-58
2021/12/27 10:39:45;;;;;;;;;;;22.20;43.60;;;;;;5112444;28;19930;-51
2021/12/27 10:42:16;;;;;;;;;;;22.10;43.40;;;;;;5113641;28;20014;-54
2021/12/27 10:44:44;;;;;;;;;;;22.20;43.50;;;;;;5116719;28;19969;-52
2021/12/27 10:47:30;;;;;;;;;;;22.20;43.50;;;;;;5117425;28;19973;-50
2021/12/27 10:50:03;;;;;;;;;;;22.20;43.50;;;;;;5099326;28;19923;-55
2021/12/27 10:52:45;;;;;;;;;;;22.20;43.40;;;;;;5117193;28;19973;-56
2021/12/27 10:55:13;;;;;;;;;;;22.20;43.40;;;;;;5116322;27;19985;-54
2021/12/27 10:57:41;;;;;;;;;;;22.20;43.40;;;;;;5099662;28;19928;-48
2021/12/27 11:00:26;;;;;;;;;;;22.20;43.40;;;;;;5117778;28;19970;-49
2021/12/27 11:02:54;;;;;;;;;;;22.20;43.30;;;;;;5099496;28;19924;-55
2021/12/27 11:05:26;;;;;;;;;;;22.20;43.30;;;;;;5117073;28;20395;-57
2021/12/27 11:07:55;;;;;;;;;;;22.30;43.40;;;;;;5117061;28;20414;-56
2021/12/27 11:10:21;;;;;;;;;;;22.30;43.30;;;;;;5116257;27;19923;-53
2021/12/27 11:12:50;;;;;;;;;;;22.30;43.20;;;;;;5117285;28;19969;-51
2021/12/27 11:15:17;;;;;;;;;;;22.30;43.20;;;;;;5116865;28;19930;-56
2021/12/27 11:17:45;;;;;;;;;;;22.40;43.20;;;;;;5116857;28;19977;-53
2021/12/27 11:20:13;;;;;;;;;;;22.40;43.20;;;;;;5116728;28;19971;-55
2021/12/27 11:22:43;;;;;;;;;;;22.40;43.20;;;;;;5116265;28;20371;-57
2021/12/27 11:25:21;;;;;;;;;;;22.40;43.20;;;;;;5115459;27;19928;-53
2021/12/27 11:27:48;;;;;;;;;;;22.40;43.10;;;;;;5116980;28;19924;-52
2021/12/27 11:30:22;;;;;;;;;;;22.40;43.10;;;;;;5116621;28;19923;-52
2021/12/27 11:33:00;;;;;;;;;;;22.40;43.10;;;;;;5116588;28;19924;-56
2021/12/27 11:35:35;;;;;;;;;;;22.40;43.10;;;;;;5116812;28;20374;-56
2021/12/27 11:38:03;;;;;;;;;;;22.40;43.10;;;;;;5116800;28;19967;-57
2021/12/27 11:40:44;;;;;;;;;;;22.40;43.10;;;;;;5115299;28;20437;-54
2021/12/27 11:43:12;;;;;;;;;;;22.40;43.10;;;;;;5116686;28;19973;-55
2021/12/27 11:45:46;;;;;;;;;;;22.40;43.10;;;;;;5116625;28;19977;-57
2021/12/27 11:48:26;;;;;;;;;;;22.40;43.10;;;;;;5116639;28;20018;-56
2021/12/27 11:50:56;;;;;;;;;;;22.40;43.20;;;;;;5117077;28;19924;-55
2021/12/27 11:53:27;;;;;;;;;;;22.40;43.20;;;;;;5116850;28;19950;-56
2021/12/27 11:55:54;;;;;;;;;;;22.40;43.20;;;;;;5096373;28;19993;-55
2021/12/27 11:58:35;;;;;;;;;;;22.40;43.20;;;;;;5117179;28;19967;-50
2021/12/27 12:01:06;;;;;;;;;;;22.40;43.20;;;;;;5115965;28;19931;-51
2021/12/27 12:03:41;;;;;;;;;;;22.40;43.20;;;;;;5098007;28;20018;-58
2021/12/27 12:06:28;;;;;;;;;;;22.40;43.20;;;;;;5116247;28;19930;-53
2021/12/27 12:08:56;;;;;;;;;;;22.40;43.20;;;;;;5115783;28;20291;-50
2021/12/27 12:11:31;;;;;;;;;;;22.40;43.20;;;;;;5114822;28;19969;-48
2021/12/27 12:14:18;;;;;;;;;;;22.40;43.10;;;;;;5116024;28;19969;-49
2021/12/27 12:16:49;;;;;;;;;;;22.40;43.20;;;;;;5115564;28;19923;-57
2021/12/27 12:19:16;;;;;;;;;;;22.40;43.10;;;;;;5115998;28;20344;-56
2021/12/27 12:21:44;;;;;;;;;;;22.40;43.10;;;;;;5115717;28;20023;-53
2021/12/27 12:24:11;;;;;;;;;;;22.40;43.10;;;;;;5115213;28;19983;-55
2021/12/27 12:26:45;;;;;;;;;;;22.40;43.10;;;;;;5114392;28;19928;-49
2021/12/27 12:29:27;;;;;;;;;;;22.50;43.20;;;;;;5115793;28;19924;-56
2021/12/27 12:31:56;;;;;;;;;;;22.40;43.10;;;;;;5115390;28;19973;-54
2021/12/27 12:34:23;;;;;;;;;;;22.40;43.10;;;;;;5115654;28;19928;-56
2021/12/27 12:36:54;;;;;;;;;;;22.50;43.20;;;;;;5097286;28;19924;-53
2021/12/27 12:39:22;;;;;;;;;;;22.50;43.20;;;;;;5115236;28;19927;-57
2021/12/27 12:41:50;;;;;;;;;;;22.50;43.10;;;;;;5114213;28;19975;-47
2021/12/27 12:44:18;;;;;;;;;;;22.50;43.20;;;;;;5115101;28;20387;-57
2021/12/27 12:46:49;;;;;;;;;;;22.50;43.10;;;;;;5115425;28;20007;-52
2021/12/27 12:49:15;;;;;;;;;;;22.50;43.10;;;;;;5115630;28;19924;-55
2021/12/27 12:51:43;;;;;;;;;;;22.50;43.10;;;;;;5114915;28;19924;-52
2021/12/27 12:54:16;;;;;;;;;;;22.50;43.10;;;;;;5114798;28;19927;-54
2021/12/27 12:56:43;;;;;;;;;;;22.50;43.10;;;;;;5113609;28;19924;-55
2021/12/27 12:59:18;;;;;;;;;;;22.50;43.10;;;;;;5114878;28;20379;-55
2021/12/27 13:01:55;;;;;;;;;;;22.50;43.10;;;;;;5114794;28;19927;-48
2021/12/27 13:04:23;;;;;;;;;;;22.50;43.10;;;;;;5114770;28;20442;-52
2021/12/27 13:06:50;;;;;;;;;;;22.50;43.10;;;;;;5096747;28;19928;-56
2021/12/27 13:09:17;;;;;;;;;;;22.50;43.10;;;;;;5115055;28;19923;-57
2021/12/27 13:11:44;;;;;;;;;;;22.50;43.10;;;;;;5113712;28;19928;-52
2021/12/27 13:14:11;;;;;;;;;;;22.50;43.10;;;;;;5114962;28;19963;-53
2021/12/27 13:16:39;;;;;;;;;;;22.50;43.10;;;;;;5114586;28;20403;-56
2021/12/27 13:19:08;;;;;;;;;;;22.50;43.10;;;;;;5114856;28;20294;-58
2021/12/27 13:21:41;;;;;;;;;;;22.50;43.10;;;;;;5114538;28;19931;-56
2021/12/27 13:24:08;;;;;;;;;;;22.50;43.10;;;;;;5096200;28;20343;-59
2021/12/27 13:26:39;;;;;;;;;;;22.50;43.10;;;;;;5113098;28;20394;-58
2021/12/27 13:29:07;;;;;;;;;;;22.50;43.10;;;;;;5114734;28;20288;-53
2021/12/27 13:31:34;;;;;;;;;;;22.50;43.20;;;;;;5114612;28;19931;-57
2021/12/27 13:34:05;;;;;;;;;;;22.50;43.20;;;;;;5114644;28;19924;-57
2021/12/27 13:36:43;;;;;;;;;;;22.50;43.20;;;;;;5114284;28;19931;-54
2021/12/27 13:39:11;;;;;;;;;;;22.50;43.20;;;;;;5096332;28;19969;-50
2021/12/27 13:41:39;;;;;;;;;;;22.50;43.20;;;;;;5113078;28;19982;-55
2021/12/27 13:44:07;;;;;;;;;;;22.50;43.20;;;;;;5114166;28;19977;-58
2021/12/27 13:46:46;;;;;;;;;;;22.50;43.20;;;;;;5114487;28;19924;-55
2021/12/27 13:49:13;;;;;;;;;;;22.50;43.30;;;;;;5114474;28;19924;-55
2021/12/27 13:51:42;;;;;;;;;;;22.50;43.30;;;;;;5114135;28;20446;-56
2021/12/27 13:54:13;;;;;;;;;;;22.50;43.30;;;;;;5113936;28;20414;-51
2021/12/27 13:56:41;;;;;;;;;;;22.50;43.30;;;;;;5112763;28;20398;-56
2021/12/27 13:59:08;;;;;;;;;;;22.50;43.40;;;;;;5096082;28;19975;-57
2021/12/27 14:01:36;;;;;;;;;;;22.50;43.40;;;;;;5113996;28;20345;-52
2021/12/27 14:04:19;;;;;;;;;;;22.50;43.40;;;;;;5114318;28;19924;-52
2021/12/27 14:06:55;;;;;;;;;;;22.50;43.40;;;;;;5114578;28;19976;-51
2021/12/27 14:09:23;;;;;;;;;;;22.50;43.40;;;;;;5113959;28;19928;-52
2021/12/27 14:11:54;;;;;;;;;;;22.50;43.40;;;;;;5113036;28;19977;-54
2021/12/27 14:14:35;;;;;;;;;;;22.50;43.40;;;;;;5114234;28;19971;-51
2021/12/27 14:17:13;;;;;;;;;;;22.50;43.50;;;;;;5114210;28;19924;-47
2021/12/27 14:19:41;;;;;;;;;;;22.50;43.50;;;;;;5099399;28;19976;-52
2021/12/27 14:22:10;;;;;;;;;;;22.50;43.50;;;;;;5117381;28;19923;-47
2021/12/27 14:24:39;;;;;;;;;;;22.50;43.50;;;;;;5118235;28;19935;-48
2021/12/27 14:27:14;;;;;;;;;;;22.50;43.50;;;;;;5116739;27;19924;-53
2021/12/27 14:29:41;;;;;;;;;;;22.50;43.60;;;;;;5117975;28;20349;-52